sensor_id;sensor_type;location;lat;lon;timestamp;temperature;humidity
20370;DHT22;10344;47.592;9.600;2023-07-20T00:02:09;21.90;99.90
20370;DHT22;10344;47.592;9.600;2023-07-20T00:04:34;21.90;99.90
20370;DHT22;10344;47.592;9.600;2023-07-20T00:07:00;21.90;99.90
20370;DHT22;10344;47.592;9.600;2023-07-20T00:09:28;21.90;99.90
20370;DHT22;10344;47.592;9.600;2023-07-20T00:11:54;21.90;99.90
20370;DHT22;10344;47.592;9.600;2023-07-20T00:14:22;21.80;99.90
20370;DHT22;10344;47.592;9.600;2023-07-20T00:16:49;21.80;99.90
20370;DHT22;10344;47.592;9.600;2023-07-20T00:19:27;21.80;99.90
20370;DHT22;10344;47.592;9.600;2023-07-20T00:21:53;21.80;99.90
20370;DHT22;10344;47.592;9.600;2023-07-20T00:24:19;21.80;99.90
20370;DHT22;10344;47.592;9.600;2023-07-20T00:26:44;21.80;99.90
20370;DHT22;10344;47.592;9.600;2023-07-20T00:29:10;21.80;99.90
20370;DHT22;10344;47.592;9.600;2023-07-20T00:31:35;21.80;99.90
20370;DHT22;10344;47.592;9.600;2023-07-20T00:34:06;21.80;99.90
20370;DHT22;10344;47.592;9.600;2023-07-20T00:36:32;21.80;99.90
20370;DHT22;10344;47.592;9.600;2023-07-20T00:38:57;21.80;99.90
20370;DHT22;10344;47.592;9.600;2023-07-20T00:41:25;21.80;99.90
20370;DHT22;10344;47.592;9.600;2023-07-20T00:43:54;21.80;99.90
20370;DHT22;10344;47.592;9.600;2023-07-20T00:46:20;21.70;99.90
20370;DHT22;10344;47.592;9.600;2023-07-20T00:48:47;21.70;99.90
20370;DHT22;10344;47.592;9.600;2023-07-20T00:51:12;21.60;99.90
20370;DHT22;10344;47.592;9.600;2023-07-20T00:53:38;21.60;99.90
20370;DHT22;10344;47.592;9.600;2023-07-20T00:56:03;21.60;99.90
20370;DHT22;10344;47.592;9.600;2023-07-20T00:58:30;21.60;99.90
20370;DHT22;10344;47.592;9.600;2023-07-20T01:00:55;21.50;99.90
20370;DHT22;10344;47.592;9.600;2023-07-20T01:03:21;21.40;99.90
20370;DHT22;10344;47.592;9.600;2023-07-20T01:05:48;21.40;99.90
20370;DHT22;10344;47.592;9.600;2023-07-20T01:11:28;21.20;99.90
20370;DHT22;10344;47.592;9.600;2023-07-20T01:13:57;21.10;99.90
20370;DHT22;10344;47.592;9.600;2023-07-20T01:16:25;21.10;99.90
20370;DHT22;10344;47.592;9.600;2023-07-20T01:18:52;21.10;99.90
20370;DHT22;10344;47.592;9.600;2023-07-20T01:21:19;21.10;99.90
20370;DHT22;10344;47.592;9.600;2023-07-20T01:24:02;21.10;99.90
20370;DHT22;10344;47.592;9.600;2023-07-20T01:31:27;21.10;99.90
20370;DHT22;10344;47.592;9.600;2023-07-20T01:33:57;21.10;99.90
20370;DHT22;10344;47.592;9.600;2023-07-20T01:36:24;21.10;99.90
20370;DHT22;10344;47.592;9.600;2023-07-20T01:38:53;21.10;99.90
20370;DHT22;10344;47.592;9.600;2023-07-20T01:41:22;21.10;99.90
20370;DHT22;10344;47.592;9.600;2023-07-20T01:43:48;21.20;99.90
20370;DHT22;10344;47.592;9.600;2023-07-20T01:46:13;21.20;99.90
20370;DHT22;10344;47.592;9.600;2023-07-20T01:48:39;21.20;99.90
20370;DHT22;10344;47.592;9.600;2023-07-20T01:51:04;21.20;99.90
20370;DHT22;10344;47.592;9.600;2023-07-20T01:53:32;21.10;99.90
20370;DHT22;10344;47.592;9.600;2023-07-20T01:55:58;21.10;99.90
20370;DHT22;10344;47.592;9.600;2023-07-20T01:58:24;21.10;99.90
20370;DHT22;10344;47.592;9.600;2023-07-20T02:00:49;21.10;99.90
20370;DHT22;10344;47.592;9.600;2023-07-20T02:03:15;21.10;99.90
20370;DHT22;10344;47.592;9.600;2023-07-20T02:05:43;21.00;99.90
20370;DHT22;10344;47.592;9.600;2023-07-20T02:08:11;20.90;99.90
20370;DHT22;10344;47.592;9.600;2023-07-20T02:10:37;20.90;99.90
20370;DHT22;10344;47.592;9.600;2023-07-20T02:13:03;20.90;99.90
20370;DHT22;10344;47.592;9.600;2023-07-20T02:15:28;20.90;99.90
20370;DHT22;10344;47.592;9.600;2023-07-20T02:17:54;20.90;99.90
20370;DHT22;10344;47.592;9.600;2023-07-20T02:20:19;20.80;99.90
20370;DHT22;10344;47.592;9.600;2023-07-20T02:22:45;20.80;99.90
20370;DHT22;10344;47.592;9.600;2023-07-20T02:25:11;20.80;99.90
20370;DHT22;10344;47.592;9.600;2023-07-20T02:27:37;20.80;99.90
20370;DHT22;10344;47.592;9.600;2023-07-20T02:30:03;20.80;99.90
20370;DHT22;10344;47.592;9.600;2023-07-20T02:32:29;20.80;99.90
20370;DHT22;10344;47.592;9.600;2023-07-20T02:34:55;20.80;99.90
20370;DHT22;10344;47.592;9.600;2023-07-20T02:37:22;20.80;99.90
20370;DHT22;10344;47.592;9.600;2023-07-20T02:39:48;20.70;99.90
20370;DHT22;10344;47.592;9.600;2023-07-20T02:42:13;20.70;99.90
20370;DHT22;10344;47.592;9.600;2023-07-20T02:44:39;20.70;99.90
20370;DHT22;10344;47.592;9.600;2023-07-20T02:47:07;20.70;99.90
20370;DHT22;10344;47.592;9.600;2023-07-20T02:49:33;20.60;99.90
20370;DHT22;10344;47.592;9.600;2023-07-20T02:51:58;20.60;99.90
20370;DHT22;10344;47.592;9.600;2023-07-20T02:54:24;20.60;99.90
20370;DHT22;10344;47.592;9.600;2023-07-20T02:56:52;20.60;99.90
20370;DHT22;10344;47.592;9.600;2023-07-20T02:59:17;20.50;99.90
20370;DHT22;10344;47.592;9.600;2023-07-20T03:01:43;20.30;99.90
20370;DHT22;10344;47.592;9.600;2023-07-20T03:04:11;20.30;99.90
20370;DHT22;10344;47.592;9.600;2023-07-20T03:06:37;20.20;99.90
20370;DHT22;10344;47.592;9.600;2023-07-20T03:09:02;20.10;99.90
20370;DHT22;10344;47.592;9.600;2023-07-20T03:11:32;20.00;99.90
20370;DHT22;10344;47.592;9.600;2023-07-20T03:13:57;20.00;99.90
20370;DHT22;10344;47.592;9.600;2023-07-20T03:16:25;19.90;99.90
20370;DHT22;10344;47.592;9.600;2023-07-20T03:18:51;19.90;99.90
20370;DHT22;10344;47.592;9.600;2023-07-20T03:21:17;19.90;99.90
20370;DHT22;10344;47.592;9.600;2023-07-20T03:23:42;19.80;99.90
20370;DHT22;10344;47.592;9.600;2023-07-20T03:26:11;19.80;99.90
20370;DHT22;10344;47.592;9.600;2023-07-20T03:28:37;19.80;99.90
20370;DHT22;10344;47.592;9.600;2023-07-20T03:31:03;19.80;99.90
20370;DHT22;10344;47.592;9.600;2023-07-20T03:33:29;19.80;99.90
20370;DHT22;10344;47.592;9.600;2023-07-20T03:35:55;19.80;99.90
20370;DHT22;10344;47.592;9.600;2023-07-20T03:38:21;19.80;99.90
20370;DHT22;10344;47.592;9.600;2023-07-20T03:40:50;19.70;99.90
20370;DHT22;10344;47.592;9.600;2023-07-20T03:43:16;19.60;99.90
20370;DHT22;10344;47.592;9.600;2023-07-20T03:45:42;19.60;99.90
20370;DHT22;10344;47.592;9.600;2023-07-20T03:48:11;19.60;99.90
20370;DHT22;10344;47.592;9.600;2023-07-20T03:50:36;19.50;99.90
20370;DHT22;10344;47.592;9.600;2023-07-20T03:53:04;19.50;99.90
20370;DHT22;10344;47.592;9.600;2023-07-20T03:55:30;19.40;99.90
20370;DHT22;10344;47.592;9.600;2023-07-20T03:57:56;19.30;99.90
20370;DHT22;10344;47.592;9.600;2023-07-20T04:00:21;19.30;99.90
20370;DHT22;10344;47.592;9.600;2023-07-20T04:02:49;19.40;99.90
20370;DHT22;10344;47.592;9.600;2023-07-20T04:05:19;19.40;99.90
20370;DHT22;10344;47.592;9.600;2023-07-20T04:07:45;19.40;99.90
20370;DHT22;10344;47.592;9.600;2023-07-20T04:10:10;19.50;99.90
20370;DHT22;10344;47.592;9.600;2023-07-20T04:12:36;19.40;99.90
20370;DHT22;10344;47.592;9.600;2023-07-20T04:15:02;19.40;99.90
20370;DHT22;10344;47.592;9.600;2023-07-20T04:17:31;19.40;99.90
20370;DHT22;10344;47.592;9.600;2023-07-20T04:19:57;19.40;99.90
20370;DHT22;10344;47.592;9.600;2023-07-20T04:22:22;19.40;99.90
20370;DHT22;10344;47.592;9.600;2023-07-20T04:24:48;19.40;99.90
20370;DHT22;10344;47.592;9.600;2023-07-20T04:27:13;19.30;99.90
20370;DHT22;10344;47.592;9.600;2023-07-20T04:29:39;19.30;99.90
20370;DHT22;10344;47.592;9.600;2023-07-20T04:32:04;19.30;99.90
20370;DHT22;10344;47.592;9.600;2023-07-20T04:34:30;19.30;99.90
20370;DHT22;10344;47.592;9.600;2023-07-20T04:36:56;19.30;99.90
20370;DHT22;10344;47.592;9.600;2023-07-20T04:39:21;19.30;99.90
20370;DHT22;10344;47.592;9.600;2023-07-20T04:41:47;19.30;99.90
20370;DHT22;10344;47.592;9.600;2023-07-20T04:44:13;19.30;99.90
20370;DHT22;10344;47.592;9.600;2023-07-20T04:46:39;19.40;99.90
20370;DHT22;10344;47.592;9.600;2023-07-20T04:49:07;19.40;99.90
20370;DHT22;10344;47.592;9.600;2023-07-20T04:51:32;19.40;99.90
20370;DHT22;10344;47.592;9.600;2023-07-20T04:53:58;19.40;99.90
20370;DHT22;10344;47.592;9.600;2023-07-20T04:56:24;19.40;99.90
20370;DHT22;10344;47.592;9.600;2023-07-20T04:58:49;19.30;99.90
20370;DHT22;10344;47.592;9.600;2023-07-20T05:01:15;19.30;99.90
20370;DHT22;10344;47.592;9.600;2023-07-20T05:03:40;19.30;99.90
20370;DHT22;10344;47.592;9.600;2023-07-20T05:06:06;19.40;99.90
20370;DHT22;10344;47.592;9.600;2023-07-20T05:08:34;19.40;99.90
20370;DHT22;10344;47.592;9.600;2023-07-20T05:11:02;19.50;99.90
20370;DHT22;10344;47.592;9.600;2023-07-20T05:13:27;19.60;99.90
20370;DHT22;10344;47.592;9.600;2023-07-20T05:15:55;19.60;99.90
20370;DHT22;10344;47.592;9.600;2023-07-20T05:18:22;19.70;99.90
20370;DHT22;10344;47.592;9.600;2023-07-20T05:20:51;19.70;99.90
20370;DHT22;10344;47.592;9.600;2023-07-20T05:23:17;19.70;99.90
20370;DHT22;10344;47.592;9.600;2023-07-20T05:25:45;19.80;99.90
20370;DHT22;10344;47.592;9.600;2023-07-20T05:28:10;19.90;99.90
20370;DHT22;10344;47.592;9.600;2023-07-20T05:30:40;19.90;99.90
20370;DHT22;10344;47.592;9.600;2023-07-20T05:33:06;20.00;99.90
20370;DHT22;10344;47.592;9.600;2023-07-20T05:35:31;20.00;99.90
20370;DHT22;10344;47.592;9.600;2023-07-20T05:37:59;20.10;99.90
20370;DHT22;10344;47.592;9.600;2023-07-20T05:40:25;20.20;99.90
20370;DHT22;10344;47.592;9.600;2023-07-20T05:42:50;20.30;99.90
20370;DHT22;10344;47.592;9.600;2023-07-20T05:45:17;20.30;99.90
20370;DHT22;10344;47.592;9.600;2023-07-20T05:47:43;20.40;99.90
20370;DHT22;10344;47.592;9.600;2023-07-20T05:50:08;20.30;99.90
20370;DHT22;10344;47.592;9.600;2023-07-20T05:52:34;20.40;99.90
20370;DHT22;10344;47.592;9.600;2023-07-20T05:55:00;20.40;99.90
20370;DHT22;10344;47.592;9.600;2023-07-20T05:57:25;20.40;99.90
20370;DHT22;10344;47.592;9.600;2023-07-20T05:59:53;20.40;99.90
20370;DHT22;10344;47.592;9.600;2023-07-20T06:02:20;20.30;99.90
20370;DHT22;10344;47.592;9.600;2023-07-20T06:04:46;20.20;99.90
20370;DHT22;10344;47.592;9.600;2023-07-20T06:07:12;20.20;99.90
20370;DHT22;10344;47.592;9.600;2023-07-20T06:09:39;20.20;99.90
20370;DHT22;10344;47.592;9.600;2023-07-20T06:12:05;20.30;99.90
20370;DHT22;10344;47.592;9.600;2023-07-20T06:14:31;20.50;99.90
20370;DHT22;10344;47.592;9.600;2023-07-20T06:16:56;20.70;99.90
20370;DHT22;10344;47.592;9.600;2023-07-20T06:19:22;21.00;99.90
20370;DHT22;10344;47.592;9.600;2023-07-20T06:21:48;21.20;99.90
20370;DHT22;10344;47.592;9.600;2023-07-20T06:24:15;21.20;99.90
20370;DHT22;10344;47.592;9.600;2023-07-20T06:26:40;21.20;99.90
20370;DHT22;10344;47.592;9.600;2023-07-20T06:29:06;21.20;99.90
20370;DHT22;10344;47.592;9.600;2023-07-20T06:31:32;21.10;99.90
20370;DHT22;10344;47.592;9.600;2023-07-20T06:34:00;21.10;99.90
20370;DHT22;10344;47.592;9.600;2023-07-20T06:36:26;21.20;99.90
20370;DHT22;10344;47.592;9.600;2023-07-20T06:38:52;21.30;99.90
20370;DHT22;10344;47.592;9.600;2023-07-20T06:41:17;21.30;99.90
20370;DHT22;10344;47.592;9.600;2023-07-20T06:43:43;21.30;99.90
20370;DHT22;10344;47.592;9.600;2023-07-20T06:46:09;21.20;99.90
20370;DHT22;10344;47.592;9.600;2023-07-20T06:48:34;21.30;99.90
20370;DHT22;10344;47.592;9.600;2023-07-20T06:51:00;21.20;99.90
20370;DHT22;10344;47.592;9.600;2023-07-20T06:53:25;21.10;99.90
20370;DHT22;10344;47.592;9.600;2023-07-20T06:55:51;21.00;99.90
20370;DHT22;10344;47.592;9.600;2023-07-20T06:58:18;21.00;99.90
20370;DHT22;10344;47.592;9.600;2023-07-20T07:00:44;20.90;99.90
20370;DHT22;10344;47.592;9.600;2023-07-20T07:03:10;20.80;99.90
20370;DHT22;10344;47.592;9.600;2023-07-20T07:05:38;20.80;99.90
20370;DHT22;10344;47.592;9.600;2023-07-20T07:08:04;20.80;99.90
20370;DHT22;10344;47.592;9.600;2023-07-20T07:10:35;21.10;99.90
20370;DHT22;10344;47.592;9.600;2023-07-20T07:13:01;22.20;99.90
20370;DHT22;10344;47.592;9.600;2023-07-20T07:15:29;23.50;99.90
20370;DHT22;10344;47.592;9.600;2023-07-20T07:17:57;24.50;99.90
20370;DHT22;10344;47.592;9.600;2023-07-20T07:20:25;24.50;99.90
20370;DHT22;10344;47.592;9.600;2023-07-20T07:22:54;24.30;99.90
20370;DHT22;10344;47.592;9.600;2023-07-20T07:25:21;24.10;99.90
20370;DHT22;10344;47.592;9.600;2023-07-20T07:27:46;24.00;99.90
20370;DHT22;10344;47.592;9.600;2023-07-20T07:30:14;23.80;99.90
20370;DHT22;10344;47.592;9.600;2023-07-20T07:32:40;23.60;99.90
20370;DHT22;10344;47.592;9.600;2023-07-20T07:35:06;23.70;99.90
20370;DHT22;10344;47.592;9.600;2023-07-20T07:37:32;23.90;99.90
20370;DHT22;10344;47.592;9.600;2023-07-20T07:40:00;23.90;99.90
20370;DHT22;10344;47.592;9.600;2023-07-20T07:42:28;23.80;99.90
20370;DHT22;10344;47.592;9.600;2023-07-20T07:44:56;23.70;99.90
20370;DHT22;10344;47.592;9.600;2023-07-20T07:47:24;23.60;99.90
20370;DHT22;10344;47.592;9.600;2023-07-20T07:49:50;23.50;99.90
20370;DHT22;10344;47.592;9.600;2023-07-20T07:52:16;23.60;99.90
20370;DHT22;10344;47.592;9.600;2023-07-20T07:54:44;24.50;99.90
20370;DHT22;10344;47.592;9.600;2023-07-20T07:57:10;26.10;99.90
20370;DHT22;10344;47.592;9.600;2023-07-20T07:59:35;27.60;99.90
20370;DHT22;10344;47.592;9.600;2023-07-20T08:02:08;28.70;99.90
20370;DHT22;10344;47.592;9.600;2023-07-20T08:04:34;29.80;99.90
20370;DHT22;10344;47.592;9.600;2023-07-20T08:07:03;30.10;99.90
20370;DHT22;10344;47.592;9.600;2023-07-20T08:09:31;29.70;99.90
20370;DHT22;10344;47.592;9.600;2023-07-20T08:11:56;29.00;99.90
20370;DHT22;10344;47.592;9.600;2023-07-20T08:14:22;28.00;99.90
20370;DHT22;10344;47.592;9.600;2023-07-20T08:16:47;27.40;99.90
20370;DHT22;10344;47.592;9.600;2023-07-20T08:19:13;26.90;99.90
20370;DHT22;10344;47.592;9.600;2023-07-20T08:21:39;26.40;99.90
20370;DHT22;10344;47.592;9.600;2023-07-20T08:24:04;26.10;99.90
20370;DHT22;10344;47.592;9.600;2023-07-20T08:26:32;26.00;99.90
20370;DHT22;10344;47.592;9.600;2023-07-20T08:29:00;26.00;99.90
20370;DHT22;10344;47.592;9.600;2023-07-20T08:31:26;25.70;99.90
20370;DHT22;10344;47.592;9.600;2023-07-20T08:33:53;25.60;99.90
20370;DHT22;10344;47.592;9.600;2023-07-20T08:36:19;26.40;99.90
20370;DHT22;10344;47.592;9.600;2023-07-20T08:38:47;27.60;99.90
20370;DHT22;10344;47.592;9.600;2023-07-20T08:41:13;28.40;99.90
20370;DHT22;10344;47.592;9.600;2023-07-20T08:43:39;29.10;99.90
20370;DHT22;10344;47.592;9.600;2023-07-20T08:46:10;29.30;99.90
20370;DHT22;10344;47.592;9.600;2023-07-20T08:48:36;28.70;99.90
20370;DHT22;10344;47.592;9.600;2023-07-20T08:51:01;29.20;99.90
20370;DHT22;10344;47.592;9.600;2023-07-20T08:53:30;29.70;99.90
20370;DHT22;10344;47.592;9.600;2023-07-20T08:55:58;29.70;99.90
20370;DHT22;10344;47.592;9.600;2023-07-20T08:58:25;29.90;99.90
20370;DHT22;10344;47.592;9.600;2023-07-20T09:00:54;29.50;99.40
20370;DHT22;10344;47.592;9.600;2023-07-20T09:03:21;29.60;99.20
20370;DHT22;10344;47.592;9.600;2023-07-20T09:05:49;29.20;99.40
20370;DHT22;10344;47.592;9.600;2023-07-20T09:08:15;29.40;99.90
20370;DHT22;10344;47.592;9.600;2023-07-20T09:10:43;30.00;99.90
20370;DHT22;10344;47.592;9.600;2023-07-20T09:13:09;30.10;98.40
20370;DHT22;10344;47.592;9.600;2023-07-20T09:15:34;30.00;99.90
20370;DHT22;10344;47.592;9.600;2023-07-20T09:18:01;30.20;99.00
20370;DHT22;10344;47.592;9.600;2023-07-20T09:20:32;29.50;98.60
20370;DHT22;10344;47.592;9.600;2023-07-20T09:22:58;29.10;99.90
20370;DHT22;10344;47.592;9.600;2023-07-20T09:25:24;29.10;99.90
20370;DHT22;10344;47.592;9.600;2023-07-20T09:27:52;28.90;99.90
20370;DHT22;10344;47.592;9.600;2023-07-20T09:30:17;29.10;99.90
20370;DHT22;10344;47.592;9.600;2023-07-20T09:32:46;29.20;99.10
20370;DHT22;10344;47.592;9.600;2023-07-20T09:35:22;29.20;99.00
20370;DHT22;10344;47.592;9.600;2023-07-20T09:38:00;29.40;98.60
20370;DHT22;10344;47.592;9.600;2023-07-20T09:40:26;29.00;99.70
20370;DHT22;10344;47.592;9.600;2023-07-20T09:42:53;28.70;99.90
20370;DHT22;10344;47.592;9.600;2023-07-20T09:48:24;28.80;99.90
20370;DHT22;10344;47.592;9.600;2023-07-20T09:50:51;29.70;99.70
20370;DHT22;10344;47.592;9.600;2023-07-20T09:53:24;30.00;99.90
20370;DHT22;10344;47.592;9.600;2023-07-20T09:55:50;30.30;98.70
20370;DHT22;10344;47.592;9.600;2023-07-20T09:58:17;30.10;99.90
20370;DHT22;10344;47.592;9.600;2023-07-20T10:00:46;29.80;99.50
20370;DHT22;10344;47.592;9.600;2023-07-20T10:03:21;29.90;99.90
20370;DHT22;10344;47.592;9.600;2023-07-20T10:06:00;29.70;99.90
20370;DHT22;10344;47.592;9.600;2023-07-20T10:08:29;30.00;99.90
20370;DHT22;10344;47.592;9.600;2023-07-20T10:10:59;30.20;97.20
20370;DHT22;10344;47.592;9.600;2023-07-20T10:13:27;29.50;98.40
20370;DHT22;10344;47.592;9.600;2023-07-20T10:16:06;29.00;99.90
20370;DHT22;10344;47.592;9.600;2023-07-20T10:18:42;29.50;99.90
20370;DHT22;10344;47.592;9.600;2023-07-20T10:21:12;29.80;99.80
20370;DHT22;10344;47.592;9.600;2023-07-20T10:23:41;30.10;98.80
20370;DHT22;10344;47.592;9.600;2023-07-20T10:26:07;29.50;98.20
20370;DHT22;10344;47.592;9.600;2023-07-20T10:28:33;29.00;99.00
20370;DHT22;10344;47.592;9.600;2023-07-20T10:30:59;28.30;99.90
20370;DHT22;10344;47.592;9.600;2023-07-20T10:33:24;28.60;99.90
20370;DHT22;10344;47.592;9.600;2023-07-20T10:35:51;28.60;99.40
20370;DHT22;10344;47.592;9.600;2023-07-20T10:38:17;28.40;99.90
20370;DHT22;10344;47.592;9.600;2023-07-20T10:40:42;28.20;99.90
20370;DHT22;10344;47.592;9.600;2023-07-20T10:43:18;28.10;99.00
20370;DHT22;10344;47.592;9.600;2023-07-20T10:45:51;27.90;99.00
20370;DHT22;10344;47.592;9.600;2023-07-20T10:48:20;28.00;99.90
20370;DHT22;10344;47.592;9.600;2023-07-20T10:50:48;28.30;99.70
20370;DHT22;10344;47.592;9.600;2023-07-20T10:53:31;28.10;98.90
20370;DHT22;10344;47.592;9.600;2023-07-20T10:56:12;27.80;99.90
20370;DHT22;10344;47.592;9.600;2023-07-20T10:58:39;27.40;99.90
20370;DHT22;10344;47.592;9.600;2023-07-20T11:01:08;27.30;99.90
20370;DHT22;10344;47.592;9.600;2023-07-20T11:03:39;27.30;99.90
20370;DHT22;10344;47.592;9.600;2023-07-20T11:08:46;27.70;99.90
20370;DHT22;10344;47.592;9.600;2023-07-20T11:11:25;28.00;99.90
20370;DHT22;10344;47.592;9.600;2023-07-20T11:13:57;28.00;99.90
20370;DHT22;10344;47.592;9.600;2023-07-20T11:16:39;28.40;99.90
20370;DHT22;10344;47.592;9.600;2023-07-20T11:19:06;28.60;99.90
20370;DHT22;10344;47.592;9.600;2023-07-20T11:21:36;28.80;99.90
20370;DHT22;10344;47.592;9.600;2023-07-20T11:24:05;28.70;99.90
20370;DHT22;10344;47.592;9.600;2023-07-20T11:26:39;28.50;99.30
20370;DHT22;10344;47.592;9.600;2023-07-20T11:29:04;28.30;99.90
20370;DHT22;10344;47.592;9.600;2023-07-20T11:31:32;28.10;99.90
20370;DHT22;10344;47.592;9.600;2023-07-20T11:34:05;28.10;99.90
20370;DHT22;10344;47.592;9.600;2023-07-20T11:36:31;28.30;99.90
20370;DHT22;10344;47.592;9.600;2023-07-20T11:38:58;28.60;99.90
20370;DHT22;10344;47.592;9.600;2023-07-20T11:41:25;28.60;99.80
20370;DHT22;10344;47.592;9.600;2023-07-20T11:43:51;28.90;99.60
20370;DHT22;10344;47.592;9.600;2023-07-20T11:46:17;29.30;99.90
20370;DHT22;10344;47.592;9.600;2023-07-20T11:48:42;30.00;99.90
20370;DHT22;10344;47.592;9.600;2023-07-20T11:51:17;30.60;99.90
20370;DHT22;10344;47.592;9.600;2023-07-20T11:53:46;31.00;98.30
20370;DHT22;10344;47.592;9.600;2023-07-20T11:56:14;31.10;98.10
20370;DHT22;10344;47.592;9.600;2023-07-20T11:58:43;31.40;98.90
20370;DHT22;10344;47.592;9.600;2023-07-20T12:01:09;31.60;98.30
20370;DHT22;10344;47.592;9.600;2023-07-20T12:03:36;31.70;99.20
20370;DHT22;10344;47.592;9.600;2023-07-20T12:06:11;31.90;98.80
20370;DHT22;10344;47.592;9.600;2023-07-20T12:08:41;31.80;95.90
20370;DHT22;10344;47.592;9.600;2023-07-20T12:11:07;31.70;97.00
20370;DHT22;10344;47.592;9.600;2023-07-20T12:13:36;31.90;96.90
20370;DHT22;10344;47.592;9.600;2023-07-20T12:16:09;32.10;95.50
20370;DHT22;10344;47.592;9.600;2023-07-20T12:18:35;32.20;95.80
20370;DHT22;10344;47.592;9.600;2023-07-20T12:21:05;32.30;96.60
20370;DHT22;10344;47.592;9.600;2023-07-20T12:23:37;32.40;96.00
20370;DHT22;10344;47.592;9.600;2023-07-20T12:26:05;32.50;98.10
20370;DHT22;10344;47.592;9.600;2023-07-20T12:28:38;32.40;95.60
20370;DHT22;10344;47.592;9.600;2023-07-20T12:31:03;32.40;97.30
20370;DHT22;10344;47.592;9.600;2023-07-20T12:33:29;32.50;95.00
20370;DHT22;10344;47.592;9.600;2023-07-20T12:35:54;32.60;96.30
20370;DHT22;10344;47.592;9.600;2023-07-20T12:38:21;32.50;95.40
20370;DHT22;10344;47.592;9.600;2023-07-20T12:40:47;32.40;95.60
20370;DHT22;10344;47.592;9.600;2023-07-20T12:43:15;32.40;95.60
20370;DHT22;10344;47.592;9.600;2023-07-20T12:45:40;32.30;94.90
20370;DHT22;10344;47.592;9.600;2023-07-20T12:48:10;32.30;95.40
20370;DHT22;10344;47.592;9.600;2023-07-20T12:50:35;32.30;94.50
20370;DHT22;10344;47.592;9.600;2023-07-20T12:53:01;32.40;94.10
20370;DHT22;10344;47.592;9.600;2023-07-20T12:55:29;32.20;93.60
20370;DHT22;10344;47.592;9.600;2023-07-20T12:57:54;32.40;95.50
20370;DHT22;10344;47.592;9.600;2023-07-20T13:00:20;32.40;95.50
20370;DHT22;10344;47.592;9.600;2023-07-20T13:02:47;32.20;93.00
20370;DHT22;10344;47.592;9.600;2023-07-20T13:05:13;32.10;94.40
20370;DHT22;10344;47.592;9.600;2023-07-20T13:07:38;32.30;96.10
20370;DHT22;10344;47.592;9.600;2023-07-20T13:10:05;32.40;94.80
20370;DHT22;10344;47.592;9.600;2023-07-20T13:12:31;32.20;93.90
20370;DHT22;10344;47.592;9.600;2023-07-20T13:14:57;32.00;94.60
20370;DHT22;10344;47.592;9.600;2023-07-20T13:17:28;31.80;95.00
20370;DHT22;10344;47.592;9.600;2023-07-20T13:19:54;31.80;94.90
20370;DHT22;10344;47.592;9.600;2023-07-20T13:22:20;32.00;96.00
20370;DHT22;10344;47.592;9.600;2023-07-20T13:24:46;31.90;94.00
20370;DHT22;10344;47.592;9.600;2023-07-20T13:27:14;31.90;94.00
20370;DHT22;10344;47.592;9.600;2023-07-20T13:29:39;31.80;93.50
20370;DHT22;10344;47.592;9.600;2023-07-20T13:32:07;31.80;94.90
20370;DHT22;10344;47.592;9.600;2023-07-20T13:34:36;31.80;93.80
20370;DHT22;10344;47.592;9.600;2023-07-20T13:37:02;31.80;94.10
20370;DHT22;10344;47.592;9.600;2023-07-20T13:39:30;31.90;93.10
20370;DHT22;10344;47.592;9.600;2023-07-20T13:41:55;32.10;94.00
20370;DHT22;10344;47.592;9.600;2023-07-20T13:44:21;32.10;92.90
20370;DHT22;10344;47.592;9.600;2023-07-20T13:46:47;32.20;93.30
20370;DHT22;10344;47.592;9.600;2023-07-20T13:49:13;32.30;93.90
20370;DHT22;10344;47.592;9.600;2023-07-20T13:51:41;32.20;93.90
20370;DHT22;10344;47.592;9.600;2023-07-20T13:54:07;32.00;93.20
20370;DHT22;10344;47.592;9.600;2023-07-20T13:56:33;31.70;92.80
20370;DHT22;10344;47.592;9.600;2023-07-20T13:58:58;31.50;92.40
20370;DHT22;10344;47.592;9.600;2023-07-20T14:01:26;31.30;93.30
20370;DHT22;10344;47.592;9.600;2023-07-20T14:03:53;31.20;94.40
20370;DHT22;10344;47.592;9.600;2023-07-20T14:06:19;31.10;94.50
20370;DHT22;10344;47.592;9.600;2023-07-20T14:08:47;31.10;94.80
20370;DHT22;10344;47.592;9.600;2023-07-20T14:11:14;31.10;94.80
20370;DHT22;10344;47.592;9.600;2023-07-20T14:13:39;31.20;94.70
20370;DHT22;10344;47.592;9.600;2023-07-20T14:16:07;31.20;95.50
20370;DHT22;10344;47.592;9.600;2023-07-20T14:18:33;31.30;93.90
20370;DHT22;10344;47.592;9.600;2023-07-20T14:20:59;31.30;94.00
20370;DHT22;10344;47.592;9.600;2023-07-20T14:23:28;31.40;94.80
20370;DHT22;10344;47.592;9.600;2023-07-20T14:25:56;31.40;93.30
20370;DHT22;10344;47.592;9.600;2023-07-20T14:28:22;31.30;94.40
20370;DHT22;10344;47.592;9.600;2023-07-20T14:30:47;31.20;94.00
20370;DHT22;10344;47.592;9.600;2023-07-20T14:33:15;31.20;94.40
20370;DHT22;10344;47.592;9.600;2023-07-20T14:35:41;31.20;93.20
20370;DHT22;10344;47.592;9.600;2023-07-20T14:38:06;31.20;93.90
20370;DHT22;10344;47.592;9.600;2023-07-20T14:40:32;31.20;93.90
20370;DHT22;10344;47.592;9.600;2023-07-20T14:42:58;31.10;94.20
20370;DHT22;10344;47.592;9.600;2023-07-20T14:45:26;30.90;95.70
20370;DHT22;10344;47.592;9.600;2023-07-20T14:47:52;30.70;94.40
20370;DHT22;10344;47.592;9.600;2023-07-20T14:50:19;30.30;94.90
20370;DHT22;10344;47.592;9.600;2023-07-20T14:52:47;30.30;95.20
20370;DHT22;10344;47.592;9.600;2023-07-20T14:55:15;30.30;96.10
20370;DHT22;10344;47.592;9.600;2023-07-20T14:57:42;30.30;97.90
20370;DHT22;10344;47.592;9.600;2023-07-20T15:00:08;30.30;95.90
20370;DHT22;10344;47.592;9.600;2023-07-20T15:02:36;30.30;96.50
20370;DHT22;10344;47.592;9.600;2023-07-20T15:05:08;30.30;95.50
20370;DHT22;10344;47.592;9.600;2023-07-20T15:07:36;30.30;95.00
20370;DHT22;10344;47.592;9.600;2023-07-20T15:10:02;30.30;94.40
20370;DHT22;10344;47.592;9.600;2023-07-20T15:12:28;30.30;93.90
20370;DHT22;10344;47.592;9.600;2023-07-20T15:17:34;30.40;96.00
20370;DHT22;10344;47.592;9.600;2023-07-20T15:20:01;30.40;92.90
20370;DHT22;10344;47.592;9.600;2023-07-20T15:22:30;30.40;92.70
20370;DHT22;10344;47.592;9.600;2023-07-20T15:24:57;30.30;94.90
20370;DHT22;10344;47.592;9.600;2023-07-20T15:27:23;30.30;93.50
20370;DHT22;10344;47.592;9.600;2023-07-20T15:29:48;30.30;93.60
20370;DHT22;10344;47.592;9.600;2023-07-20T15:32:14;30.30;92.70
20370;DHT22;10344;47.592;9.600;2023-07-20T15:34:44;30.20;94.30
20370;DHT22;10344;47.592;9.600;2023-07-20T15:37:12;30.30;93.50
20370;DHT22;10344;47.592;9.600;2023-07-20T15:39:38;30.30;93.50
20370;DHT22;10344;47.592;9.600;2023-07-20T15:42:04;29.90;94.00
20370;DHT22;10344;47.592;9.600;2023-07-20T15:44:30;29.80;94.60
20370;DHT22;10344;47.592;9.600;2023-07-20T15:46:55;29.90;94.00